sensor_id;sensor_type;location;lat;lon;timestamp;pressure;altitude;pressure_sealevel;temperature;humidity
7050;BME280;22263;52.260;10.548;2023-05-09T00:01:05;100951.34;;;13.02;100.00
7050;BME280;22263;52.260;10.548;2023-05-09T00:03:39;100946.63;;;13.06;100.00
7050;BME280;22263;52.260;10.548;2023-05-09T00:06:09;100928.22;;;12.88;100.00
7050;BME280;22263;52.260;10.548;2023-05-09T00:08:41;100939.41;;;12.95;100.00
7050;BME280;22263;52.260;10.548;2023-05-09T00:11:11;100941.41;;;12.98;100.00
7050;BME280;22263;52.260;10.548;2023-05-09T00:13:41;100947.31;;;12.96;100.00
7050;BME280;22263;52.260;10.548;2023-05-09T00:16:11;100946.88;;;12.91;100.00
7050;BME280;22263;52.260;10.548;2023-05-09T00:18:46;100950.50;;;12.95;100.00
7050;BME280;22263;52.260;10.548;2023-05-09T00:21:16;100949.63;;;12.87;100.00
7050;BME280;22263;52.260;10.548;2023-05-09T00:23:46;100945.69;;;12.92;100.00
7050;BME280;22263;52.260;10.548;2023-05-09T00:26:16;100935.69;;;12.80;100.00
7050;BME280;22263;52.260;10.548;2023-05-09T00:28:48;100943.94;;;12.73;100.00
7050;BME280;22263;52.260;10.548;2023-05-09T00:31:19;100958.63;;;12.74;100.00
7050;BME280;22263;52.260;10.548;2023-05-09T00:33:52;100941.94;;;12.70;100.00
7050;BME280;22263;52.260;10.548;2023-05-09T00:36:23;100941.97;;;12.74;100.00
7050;BME280;22263;52.260;10.548;2023-05-09T00:38:53;100942.31;;;12.68;100.00
7050;BME280;22263;52.260;10.548;2023-05-09T00:41:24;100935.97;;;12.68;100.00
7050;BME280;22263;52.260;10.548;2023-05-09T00:43:55;100924.38;;;12.59;100.00
7050;BME280;22263;52.260;10.548;2023-05-09T00:46:25;100929.94;;;12.59;100.00
7050;BME280;22263;52.260;10.548;2023-05-09T00:48:59;100936.63;;;12.54;100.00
7050;BME280;22263;52.260;10.548;2023-05-09T00:51:31;100929.41;;;12.46;100.00
7050;BME280;22263;52.260;10.548;2023-05-09T00:54:01;100925.84;;;12.46;100.00
7050;BME280;22263;52.260;10.548;2023-05-09T00:56:34;100915.81;;;12.38;100.00
7050;BME280;22263;52.260;10.548;2023-05-09T00:59:06;100909.19;;;12.46;100.00
7050;BME280;22263;52.260;10.548;2023-05-09T01:01:37;100911.06;;;12.38;100.00
7050;BME280;22263;52.260;10.548;2023-05-09T01:04:11;100905.84;;;12.30;100.00
7050;BME280;22263;52.260;10.548;2023-05-09T01:06:49;100923.72;;;12.32;100.00
7050;BME280;22263;52.260;10.548;2023-05-09T01:09:24;100907.34;;;12.23;100.00
7050;BME280;22263;52.260;10.548;2023-05-09T01:12:06;100915.31;;;12.25;100.00
7050;BME280;22263;52.260;10.548;2023-05-09T01:14:45;100901.00;;;12.23;100.00
7050;BME280;22263;52.260;10.548;2023-05-09T01:17:25;100894.22;;;12.17;100.00
7050;BME280;22263;52.260;10.548;2023-05-09T01:20:09;100894.16;;;12.13;100.00
7050;BME280;22263;52.260;10.548;2023-05-09T01:22:44;100894.88;;;12.03;100.00
7050;BME280;22263;52.260;10.548;2023-05-09T01:25:35;100898.88;;;12.09;100.00
7050;BME280;22263;52.260;10.548;2023-05-09T01:28:12;100891.16;;;11.92;100.00
7050;BME280;22263;52.260;10.548;2023-05-09T01:30:47;100892.38;;;11.95;100.00
7050;BME280;22263;52.260;10.548;2023-05-09T01:33:21;100882.72;;;11.82;100.00
7050;BME280;22263;52.260;10.548;2023-05-09T01:35:58;100886.75;;;11.88;100.00
7050;BME280;22263;52.260;10.548;2023-05-09T01:38:31;100875.63;;;11.84;100.00
7050;BME280;22263;52.260;10.548;2023-05-09T01:41:02;100879.56;;;11.83;100.00
7050;BME280;22263;52.260;10.548;2023-05-09T01:43:33;100876.31;;;11.74;100.00
7050;BME280;22263;52.260;10.548;2023-05-09T01:46:08;100875.97;;;11.79;100.00
7050;BME280;22263;52.260;10.548;2023-05-09T01:48:39;100864.81;;;11.75;100.00
7050;BME280;22263;52.260;10.548;2023-05-09T01:51:12;100864.81;;;11.75;100.00
7050;BME280;22263;52.260;10.548;2023-05-09T01:53:45;100865.25;;;11.77;100.00
7050;BME280;22263;52.260;10.548;2023-05-09T01:56:18;100877.28;;;11.89;100.00
7050;BME280;22263;52.260;10.548;2023-05-09T01:58:50;100870.94;;;11.88;100.00
7050;BME280;22263;52.260;10.548;2023-05-09T02:01:24;100866.84;;;11.78;100.00
7050;BME280;22263;52.260;10.548;2023-05-09T02:03:55;100870.09;;;11.84;100.00
7050;BME280;22263;52.260;10.548;2023-05-09T02:06:26;100877.13;;;11.78;100.00
7050;BME280;22263;52.260;10.548;2023-05-09T02:08:59;100872.00;;;11.80;100.00
7050;BME280;22263;52.260;10.548;2023-05-09T02:11:30;100854.84;;;11.71;100.00
7050;BME280;22263;52.260;10.548;2023-05-09T02:14:02;100873.03;;;11.68;100.00
7050;BME280;22263;52.260;10.548;2023-05-09T02:16:36;100854.75;;;11.64;100.00
7050;BME280;22263;52.260;10.548;2023-05-09T02:19:07;100862.25;;;11.60;100.00
7050;BME280;22263;52.260;10.548;2023-05-09T02:21:38;100851.06;;;11.53;100.00
7050;BME280;22263;52.260;10.548;2023-05-09T02:24:09;100860.97;;;11.54;100.00
7050;BME280;22263;52.260;10.548;2023-05-09T02:26:40;100864.50;;;11.51;100.00
7050;BME280;22263;52.260;10.548;2023-05-09T02:29:11;100855.78;;;11.52;100.00
7050;BME280;22263;52.260;10.548;2023-05-09T02:31:46;100859.69;;;11.48;100.00
7050;BME280;22263;52.260;10.548;2023-05-09T02:34:21;100860.81;;;11.43;100.00
7050;BME280;22263;52.260;10.548;2023-05-09T02:36:52;100859.41;;;11.26;100.00
7050;BME280;22263;52.260;10.548;2023-05-09T02:39:22;100849.06;;;11.23;100.00
7050;BME280;22263;52.260;10.548;2023-05-09T02:41:52;100853.81;;;11.23;100.00
7050;BME280;22263;52.260;10.548;2023-05-09T02:44:24;100849.03;;;11.20;100.00
7050;BME280;22263;52.260;10.548;2023-05-09T02:46:57;100854.03;;;11.11;100.00
7050;BME280;22263;52.260;10.548;2023-05-09T02:49:27;100847.75;;;11.14;100.00
7050;BME280;22263;52.260;10.548;2023-05-09T02:52:01;100854.84;;;11.11;100.00
7050;BME280;22263;52.260;10.548;2023-05-09T02:54:31;100855.44;;;10.98;100.00
7050;BME280;22263;52.260;10.548;2023-05-09T02:57:02;100849.50;;;10.99;100.00
7050;BME280;22263;52.260;10.548;2023-05-09T02:59:32;100851.00;;;10.93;100.00
7050;BME280;22263;52.260;10.548;2023-05-09T03:02:05;100850.25;;;10.96;100.00
7050;BME280;22263;52.260;10.548;2023-05-09T03:04:36;100843.81;;;10.88;100.00
7050;BME280;22263;52.260;10.548;2023-05-09T03:07:06;100837.72;;;10.79;100.00
7050;BME280;22263;52.260;10.548;2023-05-09T03:09:36;100843.38;;;10.86;100.00
7050;BME280;22263;52.260;10.548;2023-05-09T03:12:07;100838.50;;;10.76;100.00
7050;BME280;22263;52.260;10.548;2023-05-09T03:14:38;100842.41;;;10.75;100.00
7050;BME280;22263;52.260;10.548;2023-05-09T03:17:11;100837.03;;;10.60;100.00
7050;BME280;22263;52.260;10.548;2023-05-09T03:19:43;100845.41;;;10.63;100.00
7050;BME280;22263;52.260;10.548;2023-05-09T03:22:13;100843.00;;;10.62;100.00
7050;BME280;22263;52.260;10.548;2023-05-09T03:24:51;100834.19;;;10.56;100.00
7050;BME280;22263;52.260;10.548;2023-05-09T03:27:21;100829.41;;;10.53;100.00
7050;BME280;22263;52.260;10.548;2023-05-09T03:29:53;100830.63;;;10.56;100.00
7050;BME280;22263;52.260;10.548;2023-05-09T03:32:26;100833.00;;;10.54;100.00
7050;BME280;22263;52.260;10.548;2023-05-09T03:34:56;100833.00;;;10.54;100.00
7050;BME280;22263;52.260;10.548;2023-05-09T03:37:26;100836.41;;;10.47;100.00
7050;BME280;22263;52.260;10.548;2023-05-09T03:39:57;100830.16;;;10.50;100.00
7050;BME280;22263;52.260;10.548;2023-05-09T03:42:31;100815.06;;;10.44;100.00
7050;BME280;22263;52.260;10.548;2023-05-09T03:45:05;100823.75;;;10.46;100.00
7050;BME280;22263;52.260;10.548;2023-05-09T03:47:38;100824.16;;;10.44;100.00
7050;BME280;22263;52.260;10.548;2023-05-09T03:50:10;100829.28;;;10.46;100.00
7050;BME280;22263;52.260;10.548;2023-05-09T03:52:42;100822.91;;;10.42;100.00
7050;BME280;22263;52.260;10.548;2023-05-09T03:55:15;100822.09;;;10.41;100.00
7050;BME280;22263;52.260;10.548;2023-05-09T03:57:46;100817.38;;;10.42;100.00
7050;BME280;22263;52.260;10.548;2023-05-09T04:00:17;100826.16;;;10.47;100.00
7050;BME280;22263;52.260;10.548;2023-05-09T04:03:01;100816.56;;;10.41;100.00
7050;BME280;22263;52.260;10.548;2023-05-09T04:05:38;100820.44;;;10.37;100.00
7050;BME280;22263;52.260;10.548;2023-05-09T04:08:15;100818.19;;;10.42;100.00
7050;BME280;22263;52.260;10.548;2023-05-09T04:10:48;100821.00;;;10.46;100.00
7050;BME280;22263;52.260;10.548;2023-05-09T04:13:20;100820.13;;;10.42;100.00
7050;BME280;22263;52.260;10.548;2023-05-09T04:15:51;100815.94;;;10.52;100.00
7050;BME280;22263;52.260;10.548;2023-05-09T04:18:24;100811.22;;;10.52;100.00
7050;BME280;22263;52.260;10.548;2023-05-09T04:20:55;100814.44;;;10.54;100.00
7050;BME280;22263;52.260;10.548;2023-05-09T04:23:29;100812.94;;;10.60;100.00
7050;BME280;22263;52.260;10.548;2023-05-09T04:25:59;100815.34;;;10.62;100.00
7050;BME280;22263;52.260;10.548;2023-05-09T04:28:32;100809.06;;;10.65;100.00
7050;BME280;22263;52.260;10.548;2023-05-09T04:31:03;100814.22;;;10.66;100.00
7050;BME280;22263;52.260;10.548;2023-05-09T04:33:37;100807.03;;;10.62;100.00
7050;BME280;22263;52.260;10.548;2023-05-09T04:36:08;100796.47;;;10.67;100.00
7050;BME280;22263;52.260;10.548;2023-05-09T04:38:38;100798.47;;;10.70;100.00
7050;BME280;22263;52.260;10.548;2023-05-09T04:41:13;100804.50;;;10.76;100.00
7050;BME280;22263;52.260;10.548;2023-05-09T04:43:43;100804.16;;;10.81;100.00
7050;BME280;22263;52.260;10.548;2023-05-09T04:46:13;100793.47;;;10.79;100.00
7050;BME280;22263;52.260;10.548;2023-05-09T04:48:47;100795.59;;;10.89;100.00
7050;BME280;22263;52.260;10.548;2023-05-09T04:51:17;100794.88;;;10.92;100.00
7050;BME280;22263;52.260;10.548;2023-05-09T04:53:47;100794.13;;;10.96;100.00
7050;BME280;22263;52.260;10.548;2023-05-09T04:56:20;100799.84;;;11.10;100.00
7050;BME280;22263;52.260;10.548;2023-05-09T04:58:51;100791.59;;;11.13;100.00
7050;BME280;22263;52.260;10.548;2023-05-09T05:01:21;100790.84;;;11.16;100.00
7050;BME280;22263;52.260;10.548;2023-05-09T05:03:56;100782.16;;;11.18;100.00
7050;BME280;22263;52.260;10.548;2023-05-09T05:06:28;100792.56;;;11.28;100.00
7050;BME280;22263;52.260;10.548;2023-05-09T05:08:59;100804.13;;;11.33;100.00
7050;BME280;22263;52.260;10.548;2023-05-09T05:11:29;100810.63;;;11.48;100.00
7050;BME280;22263;52.260;10.548;2023-05-09T05:14:01;100799.94;;;11.47;100.00
7050;BME280;22263;52.260;10.548;2023-05-09T05:16:33;100802.84;;;11.57;100.00
7050;BME280;22263;52.260;10.548;2023-05-09T05:19:07;100805.63;;;11.61;100.00
7050;BME280;22263;52.260;10.548;2023-05-09T05:21:39;100800.50;;;11.59;100.00
7050;BME280;22263;52.260;10.548;2023-05-09T05:24:09;100787.38;;;11.56;100.00
7050;BME280;22263;52.260;10.548;2023-05-09T05:26:39;100799.09;;;11.72;100.00
7050;BME280;22263;52.260;10.548;2023-05-09T05:29:10;100788.34;;;11.71;100.00
7050;BME280;22263;52.260;10.548;2023-05-09T05:31:40;100790.94;;;11.87;100.00
7050;BME280;22263;52.260;10.548;2023-05-09T05:34:13;100779.06;;;11.90;100.00
7050;BME280;22263;52.260;10.548;2023-05-09T05:36:44;100772.03;;;11.96;100.00
7050;BME280;22263;52.260;10.548;2023-05-09T05:39:15;100772.91;;;12.03;100.00
7050;BME280;22263;52.260;10.548;2023-05-09T05:41:45;100775.38;;;12.15;100.00
7050;BME280;22263;52.260;10.548;2023-05-09T05:44:20;100767.63;;;12.32;100.00
7050;BME280;22263;52.260;10.548;2023-05-09T05:46:51;100771.56;;;12.31;100.00
7050;BME280;22263;52.260;10.548;2023-05-09T05:49:24;100770.16;;;12.54;100.00
7050;BME280;22263;52.260;10.548;2023-05-09T05:51:54;100773.41;;;12.67;100.00
7050;BME280;22263;52.260;10.548;2023-05-09T05:54:25;100759.28;;;12.86;100.00
7050;BME280;22263;52.260;10.548;2023-05-09T05:56:55;100755.75;;;12.93;100.00
7050;BME280;22263;52.260;10.548;2023-05-09T05:59:25;100758.53;;;12.93;100.00
7050;BME280;22263;52.260;10.548;2023-05-09T06:01:59;100764.16;;;13.07;100.00
7050;BME280;22263;52.260;10.548;2023-05-09T06:04:33;100758.66;;;13.14;100.00
7050;BME280;22263;52.260;10.548;2023-05-09T06:07:03;100766.66;;;13.30;100.00
7050;BME280;22263;52.260;10.548;2023-05-09T06:09:33;100760.41;;;13.47;100.00
7050;BME280;22263;52.260;10.548;2023-05-09T06:12:04;100752.88;;;13.47;100.00
7050;BME280;22263;52.260;10.548;2023-05-09T06:14:34;100758.09;;;13.67;100.00
7050;BME280;22263;52.260;10.548;2023-05-09T06:17:05;100746.22;;;13.80;100.00
7050;BME280;22263;52.260;10.548;2023-05-09T06:19:38;100753.38;;;13.85;100.00
7050;BME280;22263;52.260;10.548;2023-05-09T06:22:08;100759.69;;;13.75;100.00
7050;BME280;22263;52.260;10.548;2023-05-09T06:24:38;100732.72;;;13.89;100.00
7050;BME280;22263;52.260;10.548;2023-05-09T06:27:08;100739.44;;;13.71;100.00
7050;BME280;22263;52.260;10.548;2023-05-09T06:29:38;100731.47;;;13.73;100.00
7050;BME280;22263;52.260;10.548;2023-05-09T06:32:08;100737.47;;;13.96;100.00
7050;BME280;22263;52.260;10.548;2023-05-09T06:34:44;100725.59;;;14.13;100.00
7050;BME280;22263;52.260;10.548;2023-05-09T06:37:19;100728.75;;;14.26;100.00
7050;BME280;22263;52.260;10.548;2023-05-09T06:39:49;100725.56;;;14.31;100.00
7050;BME280;22263;52.260;10.548;2023-05-09T06:42:19;100702.56;;;14.48;100.00
7050;BME280;22263;52.260;10.548;2023-05-09T06:44:48;100708.06;;;14.76;100.00
7050;BME280;22263;52.260;10.548;2023-05-09T06:47:20;100713.19;;;14.89;100.00
7050;BME280;22263;52.260;10.548;2023-05-09T06:49:54;100713.97;;;14.93;100.00
7050;BME280;22263;52.260;10.548;2023-05-09T06:52:24;100713.56;;;14.94;100.00
7050;BME280;22263;52.260;10.548;2023-05-09T06:54:54;100703.94;;;15.20;100.00
7050;BME280;22263;52.260;10.548;2023-05-09T06:57:25;100712.53;;;15.57;100.00
7050;BME280;22263;52.260;10.548;2023-05-09T06:59:55;100707.75;;;15.54;100.00
7050;BME280;22263;52.260;10.548;2023-05-09T07:02:25;100693.44;;;15.52;100.00
7050;BME280;22263;52.260;10.548;2023-05-09T07:04:59;100701.31;;;15.64;100.00
7050;BME280;22263;52.260;10.548;2023-05-09T07:07:29;100692.84;;;15.79;100.00
7050;BME280;22263;52.260;10.548;2023-05-09T07:09:59;100686.63;;;16.16;99.90
7050;BME280;22263;52.260;10.548;2023-05-09T07:12:38;100687.22;;;16.37;98.58
7050;BME280;22263;52.260;10.548;2023-05-09T07:15:09;100699.44;;;16.50;96.32
7050;BME280;22263;52.260;10.548;2023-05-09T07:17:51;100689.56;;;16.42;97.82
7050;BME280;22263;52.260;10.548;2023-05-09T07:20:32;100671.28;;;16.75;94.71
7050;BME280;22263;52.260;10.548;2023-05-09T07:23:30;100684.13;;;17.33;92.84
7050;BME280;22263;52.260;10.548;2023-05-09T07:26:26;100677.75;;;17.63;88.84
7050;BME280;22263;52.260;10.548;2023-05-09T07:29:29;100676.47;;;18.18;81.30
7050;BME280;22263;52.260;10.548;2023-05-09T07:32:35;100665.81;;;17.86;77.71
7050;BME280;22263;52.260;10.548;2023-05-09T07:35:23;100667.50;;;17.53;78.97
7050;BME280;22263;52.260;10.548;2023-05-09T07:38:05;100673.16;;;17.76;81.59
7050;BME280;22263;52.260;10.548;2023-05-09T07:41:05;100662.63;;;17.57;83.11
7050;BME280;22263;52.260;10.548;2023-05-09T07:43:54;100652.00;;;17.75;82.07
7050;BME280;22263;52.260;10.548;2023-05-09T07:46:37;100664.22;;;17.58;79.79
7050;BME280;22263;52.260;10.548;2023-05-09T07:49:11;100654.31;;;17.54;81.06
7050;BME280;22263;52.260;10.548;2023-05-09T07:51:51;100632.00;;;17.50;83.14
7050;BME280;22263;52.260;10.548;2023-05-09T07:54:44;100648.72;;;17.54;84.01
7050;BME280;22263;52.260;10.548;2023-05-09T07:57:42;100639.94;;;17.52;86.41
7050;BME280;22263;52.260;10.548;2023-05-09T08:00:33;100645.56;;;17.78;86.72
7050;BME280;22263;52.260;10.548;2023-05-09T08:03:14;100625.44;;;17.60;86.68
7050;BME280;22263;52.260;10.548;2023-05-09T08:05:58;100633.75;;;17.91;83.79
7050;BME280;22263;52.260;10.548;2023-05-09T08:08:53;100630.59;;;18.35;82.68
7050;BME280;22263;52.260;10.548;2023-05-09T08:11:54;100623.03;;;18.32;84.51
7050;BME280;22263;52.260;10.548;2023-05-09T08:15:02;100623.44;;;19.13;75.18
7050;BME280;22263;52.260;10.548;2023-05-09T08:17:51;100603.94;;;19.26;72.83
7050;BME280;22263;52.260;10.548;2023-05-09T08:20:35;100611.00;;;19.50;69.74
7050;BME280;22263;52.260;10.548;2023-05-09T08:23:38;100584.06;;;20.01;66.18
7050;BME280;22263;52.260;10.548;2023-05-09T08:26:56;100576.53;;;19.82;65.05
7050;BME280;22263;52.260;10.548;2023-05-09T08:29:48;100584.22;;;20.84;58.94
7050;BME280;22263;52.260;10.548;2023-05-09T08:32:21;100591.19;;;20.92;57.10
7050;BME280;22263;52.260;10.548;2023-05-09T08:34:51;100583.16;;;21.19;57.24
7050;BME280;22263;52.260;10.548;2023-05-09T08:37:22;100578.03;;;21.90;52.68
7050;BME280;22263;52.260;10.548;2023-05-09T08:39:53;100588.28;;;21.84;52.08
7050;BME280;22263;52.260;10.548;2023-05-09T08:42:27;100573.84;;;22.07;49.88
7050;BME280;22263;52.260;10.548;2023-05-09T08:44:59;100560.63;;;22.73;48.66
7050;BME280;22263;52.260;10.548;2023-05-09T08:47:33;100552.28;;;23.71;44.47
7050;BME280;22263;52.260;10.548;2023-05-09T08:50:05;100567.03;;;23.75;42.73
7050;BME280;22263;52.260;10.548;2023-05-09T08:52:35;100566.25;;;23.84;42.88
7050;BME280;22263;52.260;10.548;2023-05-09T08:55:05;100563.41;;;23.75;42.16
7050;BME280;22263;52.260;10.548;2023-05-09T08:57:41;100563.88;;;23.64;42.69
7050;BME280;22263;52.260;10.548;2023-05-09T09:00:13;100547.94;;;23.98;43.22
7050;BME280;22263;52.260;10.548;2023-05-09T09:02:47;100554.25;;;24.38;42.39
7050;BME280;22263;52.260;10.548;2023-05-09T09:05:19;100544.72;;;23.59;43.25
7050;BME280;22263;52.260;10.548;2023-05-09T09:08:07;100542.09;;;23.34;44.25
7050;BME280;22263;52.260;10.548;2023-05-09T09:10:39;100528.44;;;23.81;44.10
7050;BME280;22263;52.260;10.548;2023-05-09T09:13:16;100521.25;;;24.44;43.31
7050;BME280;22263;52.260;10.548;2023-05-09T09:15:47;100527.53;;;24.03;43.30
7050;BME280;22263;52.260;10.548;2023-05-09T09:18:23;100526.94;;;24.26;44.20
7050;BME280;22263;52.260;10.548;2023-05-09T09:20:59;100532.22;;;24.15;44.12
7050;BME280;22263;52.260;10.548;2023-05-09T09:23:31;100524.06;;;24.53;42.03
7050;BME280;22263;52.260;10.548;2023-05-09T09:26:02;100530.97;;;23.98;42.18
7050;BME280;22263;52.260;10.548;2023-05-09T09:28:35;100520.53;;;23.49;43.62
7050;BME280;22263;52.260;10.548;2023-05-09T09:31:18;100521.84;;;24.57;43.20
7050;BME280;22263;52.260;10.548;2023-05-09T09:33:49;100509.94;;;24.44;42.52
7050;BME280;22263;52.260;10.548;2023-05-09T09:36:25;100534.88;;;24.73;41.82
7050;BME280;22263;52.260;10.548;2023-05-09T09:42:16;100495.56;;;24.84;41.70
7050;BME280;22263;52.260;10.548;2023-05-09T09:45:24;100495.81;;;24.35;41.65
7050;BME280;22263;52.260;10.548;2023-05-09T09:48:09;100492.59;;;25.21;41.59
7050;BME280;22263;52.260;10.548;2023-05-09T09:50:52;100481.97;;;25.87;40.44
7050;BME280;22263;52.260;10.548;2023-05-09T09:53:43;100479.97;;;24.80;41.11
7050;BME280;22263;52.260;10.548;2023-05-09T09:56:38;100476.03;;;26.14;39.25
7050;BME280;22263;52.260;10.548;2023-05-09T09:59:40;100466.03;;;26.28;38.62
7050;BME280;22263;52.260;10.548;2023-05-09T10:02:22;100478.31;;;25.39;40.40
7050;BME280;22263;52.260;10.548;2023-05-09T10:05:18;100465.56;;;24.68;40.50
7050;BME280;22263;52.260;10.548;2023-05-09T10:08:01;100463.16;;;25.27;40.43
7050;BME280;22263;52.260;10.548;2023-05-09T10:10:55;100458.47;;;25.15;39.69
7050;BME280;22263;52.260;10.548;2023-05-09T10:13:39;100467.44;;;24.71;40.71
7050;BME280;22263;52.260;10.548;2023-05-09T10:16:20;100462.56;;;25.14;40.08
7050;BME280;22263;52.260;10.548;2023-05-09T10:19:18;100423.28;;;25.64;40.23
7050;BME280;22263;52.260;10.548;2023-05-09T10:22:20;100441.00;;;24.93;41.66
7050;BME280;22263;52.260;10.548;2023-05-09T10:25:09;100434.91;;;25.66;40.75
7050;BME280;22263;52.260;10.548;2023-05-09T10:28:14;100435.38;;;26.02;39.73
7050;BME280;22263;52.260;10.548;2023-05-09T10:30:56;100435.19;;;25.68;40.74
7050;BME280;22263;52.260;10.548;2023-05-09T10:37:34;100415.44;;;26.12;39.50
7050;BME280;22263;52.260;10.548;2023-05-09T10:40:17;100422.28;;;26.20;39.37
7050;BME280;22263;52.260;10.548;2023-05-09T10:43:10;100409.34;;;25.75;40.40
7050;BME280;22263;52.260;10.548;2023-05-09T10:46:03;100417.94;;;25.95;40.91
7050;BME280;22263;52.260;10.548;2023-05-09T10:48:40;100410.94;;;26.05;41.55
7050;BME280;22263;52.260;10.548;2023-05-09T10:51:12;100398.69;;;24.89;43.43
7050;BME280;22263;52.260;10.548;2023-05-09T10:53:46;100398.84;;;25.42;41.90
7050;BME280;22263;52.260;10.548;2023-05-09T10:56:25;100390.44;;;26.25;41.91
7050;BME280;22263;52.260;10.548;2023-05-09T10:58:55;100383.69;;;26.52;40.42
7050;BME280;22263;52.260;10.548;2023-05-09T11:01:30;100384.28;;;26.26;40.81
7050;BME280;22263;52.260;10.548;2023-05-09T11:04:08;100373.28;;;26.04;40.62
7050;BME280;22263;52.260;10.548;2023-05-09T11:06:46;100359.31;;;26.01;41.17
7050;BME280;22263;52.260;10.548;2023-05-09T11:09:28;100368.31;;;26.29;40.39
7050;BME280;22263;52.260;10.548;2023-05-09T11:12:07;100360.34;;;26.27;40.17
7050;BME280;22263;52.260;10.548;2023-05-09T11:14:42;100347.69;;;25.99;41.65
7050;BME280;22263;52.260;10.548;2023-05-09T11:17:15;100349.34;;;26.50;40.84
7050;BME280;22263;52.260;10.548;2023-05-09T11:19:58;100343.28;;;26.57;41.04
7050;BME280;22263;52.260;10.548;2023-05-09T11:22:36;100344.25;;;26.54;40.83
7050;BME280;22263;52.260;10.548;2023-05-09T11:25:11;100348.88;;;26.86;40.44
7050;BME280;22263;52.260;10.548;2023-05-09T11:27:44;100328.13;;;26.80;40.14
7050;BME280;22263;52.260;10.548;2023-05-09T11:30:16;100339.06;;;26.52;40.85
7050;BME280;22263;52.260;10.548;2023-05-09T11:32:50;100331.84;;;26.36;41.03
7050;BME280;22263;52.260;10.548;2023-05-09T11:35:22;100321.88;;;25.97;41.49
7050;BME280;22263;52.260;10.548;2023-05-09T11:37:59;100322.06;;;26.52;40.88
7050;BME280;22263;52.260;10.548;2023-05-09T11:40:33;100320.50;;;26.51;40.45
7050;BME280;22263;52.260;10.548;2023-05-09T11:43:06;100307.59;;;26.21;41.22
7050;BME280;22263;52.260;10.548;2023-05-09T11:45:39;100303.19;;;25.76;41.46
7050;BME280;22263;52.260;10.548;2023-05-09T11:48:10;100301.94;;;25.77;42.42
7050;BME280;22263;52.260;10.548;2023-05-09T11:50:40;100304.19;;;26.02;42.71
7050;BME280;22263;52.260;10.548;2023-05-09T11:53:10;100305.66;;;25.83;42.16
7050;BME280;22263;52.260;10.548;2023-05-09T11:55:42;100302.38;;;25.46;41.64
7050;BME280;22263;52.260;10.548;2023-05-09T11:58:19;100310.38;;;25.47;41.88
7050;BME280;22263;52.260;10.548;2023-05-09T12:01:09;100285.72;;;25.63;41.82
7050;BME280;22263;52.260;10.548;2023-05-09T12:03:54;100291.59;;;26.03;40.76
7050;BME280;22263;52.260;10.548;2023-05-09T12:06:46;100296.16;;;26.30;40.92
7050;BME280;22263;52.260;10.548;2023-05-09T12:10:00;100280.50;;;26.20;40.05
7050;BME280;22263;52.260;10.548;2023-05-09T12:12:42;100283.53;;;26.45;40.62
7050;BME280;22263;52.260;10.548;2023-05-09T12:15:34;100272.28;;;26.36;40.53
7050;BME280;22263;52.260;10.548;2023-05-09T12:18:30;100271.28;;;25.60;40.90
7050;BME280;22263;52.260;10.548;2023-05-09T12:21:19;100270.75;;;25.09;42.68
7050;BME280;22263;52.260;10.548;2023-05-09T12:24:11;100262.66;;;25.55;41.23
7050;BME280;22263;52.260;10.548;2023-05-09T12:26:58;100257.09;;;25.90;41.14
7050;BME280;22263;52.260;10.548;2023-05-09T12:30:15;100261.09;;;25.98;40.70
7050;BME280;22263;52.260;10.548;2023-05-09T12:33:06;100249.66;;;26.07;40.77
7050;BME280;22263;52.260;10.548;2023-05-09T12:36:02;100238.28;;;26.77;40.15
7050;BME280;22263;52.260;10.548;2023-05-09T12:38:54;100255.03;;;26.55;40.11
7050;BME280;22263;52.260;10.548;2023-05-09T12:41:54;100242.25;;;25.80;40.93
7050;BME280;22263;52.260;10.548;2023-05-09T12:44:38;100232.09;;;25.74;40.58
7050;BME280;22263;52.260;10.548;2023-05-09T12:47:36;100216.03;;;25.85;40.50
7050;BME280;22263;52.260;10.548;2023-05-09T12:51:00;100234.56;;;25.28;41.68
7050;BME280;22263;52.260;10.548;2023-05-09T12:53:38;100224.44;;;25.21;42.23
7050;BME280;22263;52.260;10.548;2023-05-09T12:56:24;100232.22;;;25.11;42.31
7050;BME280;22263;52.260;10.548;2023-05-09T12:59:10;100225.16;;;25.75;41.63
7050;BME280;22263;52.260;10.548;2023-05-09T13:02:02;100219.97;;;25.73;41.51
7050;BME280;22263;52.260;10.548;2023-05-09T13:05:17;100204.03;;;25.46;41.79
7050;BME280;22263;52.260;10.548;2023-05-09T13:08:00;100215.16;;;25.35;42.15
7050;BME280;22263;52.260;10.548;2023-05-09T13:10:34;100209.00;;;25.07;42.65
7050;BME280;22263;52.260;10.548;2023-05-09T13:13:06;100217.13;;;25.44;42.93
7050;BME280;22263;52.260;10.548;2023-05-09T13:15:40;100188.50;;;25.27;42.67
7050;BME280;22263;52.260;10.548;2023-05-09T13:18:12;100212.72;;;24.90;43.06
7050;BME280;22263;52.260;10.548;2023-05-09T13:20:44;100197.13;;;24.94;43.12
7050;BME280;22263;52.260;10.548;2023-05-09T13:23:14;100199.00;;;24.97;43.35
7050;BME280;22263;52.260;10.548;2023-05-09T13:25:46;100207.25;;;25.39;42.45
7050;BME280;22263;52.260;10.548;2023-05-09T13:28:16;100191.69;;;25.05;42.71
7050;BME280;22263;52.260;10.548;2023-05-09T13:30:46;100176.88;;;25.25;42.31
7050;BME280;22263;52.260;10.548;2023-05-09T13:33:16;100222.31;;;24.92;42.72
7050;BME280;22263;52.260;10.548;2023-05-09T13:35:51;100177.25;;;24.80;43.23
7050;BME280;22263;52.260;10.548;2023-05-09T13:38:22;100183.06;;;24.61;43.76
7050;BME280;22263;52.260;10.548;2023-05-09T13:40:51;100170.81;;;24.64;43.72
7050;BME280;22263;52.260;10.548;2023-05-09T13:43:21;100176.75;;;24.66;44.10